Westview, KY (40178)

2:27 AM CDT on August 30, 2016 (GMT -0500)
Eveleigh Road | | Change Station

Elev 670 ft 37.58 °N, 86.34 °W | Updated 4 seconds ago

Clear
Clear
73.2 °F
Feels Like 73.2 °F
N
0.7
Wind Variable Wind from NE
Gusts 2.2 mph

Today
High -- | Low -- °F
--% Chance of Precip.
Yesterday
High -- | Low -- °F
Precip. -- in
Pressure 30.11 in
Visibility 10.0 miles
Clouds Clear
Dew Point 73 °F
Humidity 99%
Rainfall 0.00 in
Snow Depth Not available.
6:14 AM 7:16 PM
Waning Crescent, 5% visible
METAR KFTK 300658Z AUTO 02003KT 10SM CLR 22/21 A3012 RMK AO2 SLP195 T02220209
Pressure 30.11 in
Visibility 10.0 miles
Clouds Clear
Dew Point 73 °F
Humidity 99%
Rainfall 0.00 in
Snow Depth Not available.
6:14 AM 7:16 PM
Waning Crescent, 5% visible
METAR KFTK 300658Z AUTO 02003KT 10SM CLR 22/21 A3012 RMK AO2 SLP195 T02220209

10-Day Weather Forecast

Almanac

Astronomy

Aug. 30, 2016 Rise Set
Actual Time
Civil Twilight
Nautical Twilight
Astronomical Twilight
Moon
Length of Visible Light
Length of Day
Tomorrow will be .
, % of the Moon is Illuminated

Today's Extremes

State Highs State Lows

Community

WunderPhotos

Upload Photos

1,935,795 photos uploaded!

WunderBlog® & News

Nearby

Air Quality

  Air Quality AQ Index Pollutant
Not available.

Snow Depth

Station Depth Elevation

Earthquake Activity

City Distance Mag. Time & Date
Minimum magnitude displayed is 2.5.

Coastal Water Temperatures

Place Temperature

Stations

Nearby Weather Stations

Station Location Temp. Windchill Dew Point Humidity Wind Precip. Elev Updated Type
                   

Watches & Warnings

There are currently no watches in effect.